TimeEDT,TemperatureF,Dew PointF,Humidity,Sea Level PressureIn,VisibilityMPH,Wind Direction,Wind SpeedMPH,Gust SpeedMPH,PrecipitationIn,Events,Conditions,WindDirDegrees,DateUTC
12:55 AM,48.0,43.5,84,30.15,10.0,NNE,5.8,-,N/A,,Mostly Cloudy,20,2012-10-10 04:55:00
1:55 AM,47.8,44.4,88,30.12,10.0,NNE,3.5,-,N/A,,Mostly Cloudy,20,2012-10-10 05:55:00
2:55 AM,47.5,44.6,90,30.13,10.0,WNW,5.8,-,N/A,,Overcast,300,2012-10-10 06:55:00
3:18 AM,46.4,44.6,93,30.12,10.0,North,5.8,-,N/A,,Overcast,350,2012-10-10 07:18:00
3:55 AM,47.5,43.5,86,30.11,10.0,North,4.6,-,N/A,,Overcast,10,2012-10-10 07:55:00
4:55 AM,48.0,44.4,87,30.09,10.0,North,3.5,-,N/A,,Overcast,10,2012-10-10 08:55:00
5:24 AM,48.2,44.6,87,30.08,10.0,NNE,4.6,-,N/A,,Overcast,20,2012-10-10 09:24:00
5:55 AM,48.7,45.9,90,30.09,10.0,NW,3.5,-,N/A,,Overcast,320,2012-10-10 09:55:00
6:55 AM,48.2,46.2,93,30.09,8.0,West,4.6,-,N/A,,Overcast,280,2012-10-10 10:55:00
7:11 AM,48.2,46.4,93,30.08,3.0,NW,5.8,-,N/A,,Light Drizzle,320,2012-10-10 11:11:00
7:55 AM,48.0,45.9,92,30.07,3.0,North,5.8,-,0.00,,Overcast,10,2012-10-10 11:55:00
8:05 AM,48.2,46.4,93,30.06,2.0,North,6.9,-,N/A,,Light Drizzle,10,2012-10-10 12:05:00
8:35 AM,48.2,48.2,100,30.05,4.0,NNE,6.9,-,N/A,,Mostly Cloudy,30,2012-10-10 12:35:00
8:55 AM,48.7,47.7,96,30.04,4.0,NE,4.6,-,0.00,,Overcast,40,2012-10-10 12:55:00
9:23 AM,50.0,48.2,94,30.04,4.0,NE,5.8,-,N/A,,Light Drizzle,40,2012-10-10 13:23:00
9:55 AM,50.7,49.6,96,30.03,3.0,North,3.5,-,0.00,,Light Drizzle,10,2012-10-10 13:55:00
10:10 AM,50.0,50.0,100,30.03,1.0,North,4.6,-,N/A,,Light Drizzle,10,2012-10-10 14:10:00
10:55 AM,51.6,51.3,99,30.00,1.2,NE,5.8,-,0.00,,Light Drizzle,40,2012-10-10 14:55:00
12:07 PM,53.6,53.6,100,29.96,1.5,NE,6.9,-,N/A,Rain,Light Rain,40,2012-10-10 16:07:00
12:32 PM,53.6,53.6,100,29.94,4.0,ENE,6.9,-,N/A,Rain,Light Rain,60,2012-10-10 16:32:00
12:55 PM,54.1,53.8,99,29.92,4.0,ENE,8.1,-,0.02,Rain,Light Rain,60,2012-10-10 16:55:00
1:17 PM,53.6,53.6,100,29.90,1.5,ENE,8.1,-,N/A,Rain,Light Rain,70,2012-10-10 17:17:00
1:55 PM,54.7,54.5,99,29.88,3.0,ENE,9.2,-,0.00,Rain,Light Rain,70,2012-10-10 17:55:00
2:02 PM,55.4,55.4,100,29.88,1.0,East,8.1,-,N/A,Rain,Light Rain,80,2012-10-10 18:02:00
2:27 PM,55.4,55.4,100,29.85,2.0,East,9.2,-,N/A,Rain,Light Rain,80,2012-10-10 18:27:00
2:55 PM,56.7,56.3,99,29.83,2.0,East,12.7,-,0.04,Rain,Light Rain,90,2012-10-10 18:55:00
3:10 PM,57.2,57.2,100,29.82,1.0,East,12.7,-,N/A,Rain,Light Rain,100,2012-10-10 19:10:00
3:55 PM,57.9,57.7,99,29.80,1.0,ESE,9.2,-,0.04,Rain,Light Rain,120,2012-10-10 19:55:00
4:49 PM,59.0,59.0,100,29.75,0.6,ESE,12.7,-,N/A,Rain,Light Rain,120,2012-10-10 20:49:00
4:55 PM,58.6,58.3,99,29.75,0.5,ESE,13.8,-,0.05,Fog-Rain,Light Rain,120,2012-10-10 20:55:00
5:15 PM,59.0,59.0,100,29.73,1.0,SE,8.1,-,N/A,Rain,Light Rain,130,2012-10-10 21:15:00
5:55 PM,59.0,58.6,99,29.72,1.0,SE,12.7,-,0.07,Rain,Light Rain,140,2012-10-10 21:55:00
6:55 PM,59.0,58.6,99,29.70,3.0,SSE,9.2,-,0.04,,Light Drizzle,160,2012-10-10 22:55:00
7:55 PM,59.4,59.0,99,29.70,5.0,WSW,5.8,-,0.00,,Overcast,240,2012-10-10 23:55:00
8:22 PM,59.0,59.0,100,29.69,7.0,SW,6.9,-,N/A,,Mostly Cloudy,230,2012-10-11 00:22:00
8:55 PM,57.6,57.2,99,29.70,10.0,WSW,8.1,-,N/A,,Mostly Cloudy,250,2012-10-11 00:55:00
9:33 PM,57.2,55.4,94,29.70,10.0,WSW,8.1,-,N/A,,Mostly Cloudy,250,2012-10-11 01:33:00
9:55 PM,56.3,55.4,97,29.71,10.0,West,9.2,-,N/A,,Mostly Cloudy,260,2012-10-11 01:55:00
10:55 PM,54.7,53.1,94,29.72,10.0,WSW,8.1,-,N/A,,Partly Cloudy,250,2012-10-11 02:55:00
11:55 PM,54.1,50.2,86,29.74,10.0,West,12.7,-,N/A,,Mostly Cloudy,260,2012-10-11 03:55:00